sensor_id;sensor_type;location;lat;lon;timestamp;P1;durP1;ratioP1;P2;durP2;ratioP2
19339;SDS011;9804;52.350;6.684;2023-04-25T00:02:20;33.13;;;5.17;;
19339;SDS011;9804;52.350;6.684;2023-04-25T00:04:45;32.30;;;5.17;;
19339;SDS011;9804;52.350;6.684;2023-04-25T00:07:11;20.30;;;4.83;;
19339;SDS011;9804;52.350;6.684;2023-04-25T00:09:37;26.73;;;4.80;;
19339;SDS011;9804;52.350;6.684;2023-04-25T00:12:03;20.03;;;4.67;;
19339;SDS011;9804;52.350;6.684;2023-04-25T00:14:28;29.47;;;4.93;;
19339;SDS011;9804;52.350;6.684;2023-04-25T00:16:54;24.87;;;5.00;;
19339;SDS011;9804;52.350;6.684;2023-04-25T00:19:20;28.07;;;5.03;;
19339;SDS011;9804;52.350;6.684;2023-04-25T00:21:45;21.60;;;4.93;;
19339;SDS011;9804;52.350;6.684;2023-04-25T00:24:11;22.25;;;4.05;;
19339;SDS011;9804;52.350;6.684;2023-04-25T00:26:37;24.35;;;4.82;;
19339;SDS011;9804;52.350;6.684;2023-04-25T00:29:03;17.17;;;5.20;;
19339;SDS011;9804;52.350;6.684;2023-04-25T00:31:28;31.30;;;6.28;;
19339;SDS011;9804;52.350;6.684;2023-04-25T00:33:54;24.08;;;4.97;;
19339;SDS011;9804;52.350;6.684;2023-04-25T00:36:20;27.52;;;5.90;;
19339;SDS011;9804;52.350;6.684;2023-04-25T00:38:45;21.98;;;4.97;;
19339;SDS011;9804;52.350;6.684;2023-04-25T00:41:10;26.00;;;5.43;;
19339;SDS011;9804;52.350;6.684;2023-04-25T00:43:36;26.80;;;5.15;;
19339;SDS011;9804;52.350;6.684;2023-04-25T00:46:02;21.90;;;4.90;;
19339;SDS011;9804;52.350;6.684;2023-04-25T00:48:27;34.03;;;5.30;;
19339;SDS011;9804;52.350;6.684;2023-04-25T00:50:53;28.75;;;5.68;;
19339;SDS011;9804;52.350;6.684;2023-04-25T00:53:22;34.88;;;4.85;;
19339;SDS011;9804;52.350;6.684;2023-04-25T00:55:48;30.67;;;5.57;;
19339;SDS011;9804;52.350;6.684;2023-04-25T00:58:15;34.50;;;5.57;;
19339;SDS011;9804;52.350;6.684;2023-04-25T01:00:45;23.97;;;5.00;;
19339;SDS011;9804;52.350;6.684;2023-04-25T01:03:12;34.07;;;5.87;;
19339;SDS011;9804;52.350;6.684;2023-04-25T01:05:38;28.50;;;5.73;;
19339;SDS011;9804;52.350;6.684;2023-04-25T01:08:05;27.07;;;5.23;;
19339;SDS011;9804;52.350;6.684;2023-04-25T01:10:31;32.77;;;6.63;;
19339;SDS011;9804;52.350;6.684;2023-04-25T01:12:56;25.33;;;5.00;;
19339;SDS011;9804;52.350;6.684;2023-04-25T01:15:22;24.77;;;5.00;;
19339;SDS011;9804;52.350;6.684;2023-04-25T01:17:47;24.35;;;5.53;;
19339;SDS011;9804;52.350;6.684;2023-04-25T01:20:14;33.22;;;5.78;;
19339;SDS011;9804;52.350;6.684;2023-04-25T01:22:40;31.53;;;4.90;;
19339;SDS011;9804;52.350;6.684;2023-04-25T01:25:07;25.43;;;5.67;;
19339;SDS011;9804;52.350;6.684;2023-04-25T01:27:33;28.17;;;4.87;;
19339;SDS011;9804;52.350;6.684;2023-04-25T01:29:59;30.20;;;6.43;;
19339;SDS011;9804;52.350;6.684;2023-04-25T01:32:24;21.93;;;5.10;;
19339;SDS011;9804;52.350;6.684;2023-04-25T01:34:51;25.17;;;5.07;;
19339;SDS011;9804;52.350;6.684;2023-04-25T01:37:17;27.40;;;5.47;;
19339;SDS011;9804;52.350;6.684;2023-04-25T01:39:42;35.95;;;6.45;;
19339;SDS011;9804;52.350;6.684;2023-04-25T01:42:08;35.25;;;6.00;;
19339;SDS011;9804;52.350;6.684;2023-04-25T01:44:33;28.95;;;6.45;;
19339;SDS011;9804;52.350;6.684;2023-04-25T01:46:59;24.63;;;6.10;;
19339;SDS011;9804;52.350;6.684;2023-04-25T01:49:24;29.70;;;5.55;;
19339;SDS011;9804;52.350;6.684;2023-04-25T01:51:50;29.83;;;5.90;;
19339;SDS011;9804;52.350;6.684;2023-04-25T01:54:15;25.77;;;5.50;;
19339;SDS011;9804;52.350;6.684;2023-04-25T01:56:41;26.60;;;5.10;;
19339;SDS011;9804;52.350;6.684;2023-04-25T01:59:07;26.13;;;5.80;;
19339;SDS011;9804;52.350;6.684;2023-04-25T02:01:33;30.47;;;5.07;;
19339;SDS011;9804;52.350;6.684;2023-04-25T02:03:58;23.47;;;4.90;;
19339;SDS011;9804;52.350;6.684;2023-04-25T02:06:24;17.27;;;4.57;;
19339;SDS011;9804;52.350;6.684;2023-04-25T02:08:49;20.57;;;5.30;;
19339;SDS011;9804;52.350;6.684;2023-04-25T02:11:15;26.50;;;6.57;;
19339;SDS011;9804;52.350;6.684;2023-04-25T02:13:40;23.43;;;5.07;;
19339;SDS011;9804;52.350;6.684;2023-04-25T02:16:06;27.17;;;5.20;;
19339;SDS011;9804;52.350;6.684;2023-04-25T02:18:31;22.63;;;4.30;;
19339;SDS011;9804;52.350;6.684;2023-04-25T02:20:58;20.80;;;4.77;;
19339;SDS011;9804;52.350;6.684;2023-04-25T02:23:24;27.87;;;4.97;;
19339;SDS011;9804;52.350;6.684;2023-04-25T02:25:49;27.47;;;5.47;;
19339;SDS011;9804;52.350;6.684;2023-04-25T02:28:15;26.30;;;4.63;;
19339;SDS011;9804;52.350;6.684;2023-04-25T02:30:40;31.00;;;4.90;;
19339;SDS011;9804;52.350;6.684;2023-04-25T02:33:06;20.57;;;5.07;;
19339;SDS011;9804;52.350;6.684;2023-04-25T02:35:31;19.90;;;4.87;;
19339;SDS011;9804;52.350;6.684;2023-04-25T02:37:56;22.87;;;5.17;;
19339;SDS011;9804;52.350;6.684;2023-04-25T02:40:22;20.77;;;4.17;;
19339;SDS011;9804;52.350;6.684;2023-04-25T02:42:47;25.03;;;4.50;;
19339;SDS011;9804;52.350;6.684;2023-04-25T02:45:13;27.03;;;5.20;;
19339;SDS011;9804;52.350;6.684;2023-04-25T02:47:38;16.67;;;4.17;;
19339;SDS011;9804;52.350;6.684;2023-04-25T02:50:04;14.67;;;4.37;;
19339;SDS011;9804;52.350;6.684;2023-04-25T02:52:29;19.33;;;4.00;;
19339;SDS011;9804;52.350;6.684;2023-04-25T02:54:55;14.20;;;4.67;;
19339;SDS011;9804;52.350;6.684;2023-04-25T02:57:20;17.83;;;3.73;;
19339;SDS011;9804;52.350;6.684;2023-04-25T02:59:46;21.57;;;4.10;;
19339;SDS011;9804;52.350;6.684;2023-04-25T03:02:11;17.80;;;3.80;;
19339;SDS011;9804;52.350;6.684;2023-04-25T03:04:36;16.97;;;4.00;;
19339;SDS011;9804;52.350;6.684;2023-04-25T03:07:02;22.80;;;3.67;;
19339;SDS011;9804;52.350;6.684;2023-04-25T03:09:28;21.90;;;3.97;;
19339;SDS011;9804;52.350;6.684;2023-04-25T03:11:53;18.70;;;3.97;;
19339;SDS011;9804;52.350;6.684;2023-04-25T03:14:19;13.50;;;3.73;;
19339;SDS011;9804;52.350;6.684;2023-04-25T03:16:44;16.10;;;4.10;;
19339;SDS011;9804;52.350;6.684;2023-04-25T03:19:10;16.20;;;4.20;;
19339;SDS011;9804;52.350;6.684;2023-04-25T03:21:35;18.93;;;4.10;;
19339;SDS011;9804;52.350;6.684;2023-04-25T03:24:02;18.00;;;3.90;;
19339;SDS011;9804;52.350;6.684;2023-04-25T03:26:28;14.97;;;3.60;;
19339;SDS011;9804;52.350;6.684;2023-04-25T03:28:54;15.83;;;3.60;;
19339;SDS011;9804;52.350;6.684;2023-04-25T03:31:19;27.77;;;5.17;;
19339;SDS011;9804;52.350;6.684;2023-04-25T03:33:45;12.70;;;3.47;;
19339;SDS011;9804;52.350;6.684;2023-04-25T03:36:10;20.37;;;3.90;;
19339;SDS011;9804;52.350;6.684;2023-04-25T03:38:36;20.10;;;3.90;;
19339;SDS011;9804;52.350;6.684;2023-04-25T03:41:01;21.20;;;4.30;;
19339;SDS011;9804;52.350;6.684;2023-04-25T03:43:27;15.00;;;3.67;;
19339;SDS011;9804;52.350;6.684;2023-04-25T03:45:53;14.37;;;3.77;;
19339;SDS011;9804;52.350;6.684;2023-04-25T03:48:18;23.97;;;3.83;;
19339;SDS011;9804;52.350;6.684;2023-04-25T03:50:46;15.33;;;3.67;;
19339;SDS011;9804;52.350;6.684;2023-04-25T03:53:12;14.43;;;3.30;;
19339;SDS011;9804;52.350;6.684;2023-04-25T03:55:37;17.77;;;3.87;;
19339;SDS011;9804;52.350;6.684;2023-04-25T03:58:03;15.73;;;3.70;;
19339;SDS011;9804;52.350;6.684;2023-04-25T04:00:28;18.37;;;4.07;;
19339;SDS011;9804;52.350;6.684;2023-04-25T04:02:53;17.10;;;3.63;;
19339;SDS011;9804;52.350;6.684;2023-04-25T04:05:19;22.23;;;4.60;;
19339;SDS011;9804;52.350;6.684;2023-04-25T04:07:44;20.93;;;4.20;;
19339;SDS011;9804;52.350;6.684;2023-04-25T04:10:10;16.90;;;4.37;;
19339;SDS011;9804;52.350;6.684;2023-04-25T04:12:35;16.30;;;4.17;;
19339;SDS011;9804;52.350;6.684;2023-04-25T04:15:02;19.07;;;4.03;;
19339;SDS011;9804;52.350;6.684;2023-04-25T04:17:31;17.97;;;4.13;;
19339;SDS011;9804;52.350;6.684;2023-04-25T04:19:57;16.03;;;4.17;;
19339;SDS011;9804;52.350;6.684;2023-04-25T04:22:25;16.80;;;3.63;;
19339;SDS011;9804;52.350;6.684;2023-04-25T04:24:51;20.97;;;4.60;;
19339;SDS011;9804;52.350;6.684;2023-04-25T04:27:17;15.60;;;3.87;;
19339;SDS011;9804;52.350;6.684;2023-04-25T04:29:44;10.43;;;3.60;;
19339;SDS011;9804;52.350;6.684;2023-04-25T04:32:11;17.80;;;4.70;;
19339;SDS011;9804;52.350;6.684;2023-04-25T04:34:38;23.10;;;4.07;;
19339;SDS011;9804;52.350;6.684;2023-04-25T04:37:04;18.47;;;4.43;;
19339;SDS011;9804;52.350;6.684;2023-04-25T04:39:30;19.03;;;4.47;;
19339;SDS011;9804;52.350;6.684;2023-04-25T04:41:56;10.57;;;3.13;;
19339;SDS011;9804;52.350;6.684;2023-04-25T04:44:21;22.17;;;4.57;;
19339;SDS011;9804;52.350;6.684;2023-04-25T04:46:47;14.57;;;4.20;;
19339;SDS011;9804;52.350;6.684;2023-04-25T04:49:13;18.80;;;4.27;;
19339;SDS011;9804;52.350;6.684;2023-04-25T04:51:39;13.60;;;3.67;;
19339;SDS011;9804;52.350;6.684;2023-04-25T04:54:06;13.87;;;3.43;;
19339;SDS011;9804;52.350;6.684;2023-04-25T04:56:31;17.63;;;4.13;;
19339;SDS011;9804;52.350;6.684;2023-04-25T04:58:57;21.23;;;4.20;;
19339;SDS011;9804;52.350;6.684;2023-04-25T05:01:23;18.13;;;3.30;;
19339;SDS011;9804;52.350;6.684;2023-04-25T05:03:49;17.90;;;3.80;;
19339;SDS011;9804;52.350;6.684;2023-04-25T05:06:15;16.67;;;3.73;;
19339;SDS011;9804;52.350;6.684;2023-04-25T05:08:41;14.10;;;3.33;;
19339;SDS011;9804;52.350;6.684;2023-04-25T05:11:07;13.57;;;3.97;;
19339;SDS011;9804;52.350;6.684;2023-04-25T05:13:32;26.27;;;4.67;;
19339;SDS011;9804;52.350;6.684;2023-04-25T05:15:57;18.93;;;4.50;;
19339;SDS011;9804;52.350;6.684;2023-04-25T05:18:23;16.20;;;3.43;;
19339;SDS011;9804;52.350;6.684;2023-04-25T05:20:48;16.87;;;3.73;;
19339;SDS011;9804;52.350;6.684;2023-04-25T05:23:14;11.93;;;3.30;;
19339;SDS011;9804;52.350;6.684;2023-04-25T05:25:39;18.15;;;3.50;;
19339;SDS011;9804;52.350;6.684;2023-04-25T05:28:04;20.75;;;3.63;;
19339;SDS011;9804;52.350;6.684;2023-04-25T05:30:30;12.80;;;3.30;;
19339;SDS011;9804;52.350;6.684;2023-04-25T05:32:56;16.30;;;3.75;;
19339;SDS011;9804;52.350;6.684;2023-04-25T05:35:21;15.93;;;3.67;;
19339;SDS011;9804;52.350;6.684;2023-04-25T05:37:46;12.73;;;2.97;;
19339;SDS011;9804;52.350;6.684;2023-04-25T05:40:12;14.87;;;3.07;;
19339;SDS011;9804;52.350;6.684;2023-04-25T05:42:37;12.70;;;2.85;;
19339;SDS011;9804;52.350;6.684;2023-04-25T05:45:03;18.02;;;4.07;;
19339;SDS011;9804;52.350;6.684;2023-04-25T05:47:29;15.40;;;3.13;;
19339;SDS011;9804;52.350;6.684;2023-04-25T05:49:54;12.13;;;2.53;;
19339;SDS011;9804;52.350;6.684;2023-04-25T05:52:20;12.43;;;3.10;;
19339;SDS011;9804;52.350;6.684;2023-04-25T05:54:45;15.37;;;2.50;;
19339;SDS011;9804;52.350;6.684;2023-04-25T05:57:21;12.47;;;2.70;;
19339;SDS011;9804;52.350;6.684;2023-04-25T05:59:50;10.90;;;2.30;;
19339;SDS011;9804;52.350;6.684;2023-04-25T06:02:16;9.48;;;2.47;;
19339;SDS011;9804;52.350;6.684;2023-04-25T06:04:42;11.77;;;2.22;;
19339;SDS011;9804;52.350;6.684;2023-04-25T06:07:07;16.08;;;2.28;;
19339;SDS011;9804;52.350;6.684;2023-04-25T06:09:33;12.38;;;2.15;;
19339;SDS011;9804;52.350;6.684;2023-04-25T06:11:59;10.05;;;2.38;;
19339;SDS011;9804;52.350;6.684;2023-04-25T06:14:24;15.20;;;2.40;;
19339;SDS011;9804;52.350;6.684;2023-04-25T06:16:50;11.85;;;2.20;;
19339;SDS011;9804;52.350;6.684;2023-04-25T06:19:15;14.15;;;2.28;;
19339;SDS011;9804;52.350;6.684;2023-04-25T06:21:42;9.65;;;1.75;;
19339;SDS011;9804;52.350;6.684;2023-04-25T06:24:08;17.10;;;3.00;;
19339;SDS011;9804;52.350;6.684;2023-04-25T06:26:33;15.13;;;2.67;;
19339;SDS011;9804;52.350;6.684;2023-04-25T06:28:59;13.75;;;2.70;;
19339;SDS011;9804;52.350;6.684;2023-04-25T06:31:24;14.90;;;2.45;;
19339;SDS011;9804;52.350;6.684;2023-04-25T06:33:50;10.70;;;2.40;;
19339;SDS011;9804;52.350;6.684;2023-04-25T06:36:15;12.80;;;2.50;;
19339;SDS011;9804;52.350;6.684;2023-04-25T06:38:40;11.57;;;2.85;;
19339;SDS011;9804;52.350;6.684;2023-04-25T06:41:06;10.07;;;2.58;;
19339;SDS011;9804;52.350;6.684;2023-04-25T06:43:31;16.83;;;2.08;;
19339;SDS011;9804;52.350;6.684;2023-04-25T06:45:58;12.15;;;2.50;;
19339;SDS011;9804;52.350;6.684;2023-04-25T06:48:25;8.80;;;2.25;;
19339;SDS011;9804;52.350;6.684;2023-04-25T06:50:51;13.75;;;2.47;;
19339;SDS011;9804;52.350;6.684;2023-04-25T06:53:17;7.65;;;2.10;;
19339;SDS011;9804;52.350;6.684;2023-04-25T06:55:43;18.85;;;2.50;;
19339;SDS011;9804;52.350;6.684;2023-04-25T06:58:08;11.80;;;2.10;;
19339;SDS011;9804;52.350;6.684;2023-04-25T07:00:34;15.88;;;2.05;;
19339;SDS011;9804;52.350;6.684;2023-04-25T07:02:59;14.52;;;1.83;;
19339;SDS011;9804;52.350;6.684;2023-04-25T07:05:25;12.55;;;1.80;;
19339;SDS011;9804;52.350;6.684;2023-04-25T07:07:50;8.45;;;1.83;;
19339;SDS011;9804;52.350;6.684;2023-04-25T07:10:16;12.70;;;3.07;;
19339;SDS011;9804;52.350;6.684;2023-04-25T07:12:41;10.77;;;2.00;;
19339;SDS011;9804;52.350;6.684;2023-04-25T07:15:06;8.43;;;2.13;;
19339;SDS011;9804;52.350;6.684;2023-04-25T07:17:34;14.10;;;2.30;;
19339;SDS011;9804;52.350;6.684;2023-04-25T07:20:00;7.60;;;1.70;;
19339;SDS011;9804;52.350;6.684;2023-04-25T07:22:25;10.50;;;2.00;;
19339;SDS011;9804;52.350;6.684;2023-04-25T07:24:51;17.13;;;2.50;;
19339;SDS011;9804;52.350;6.684;2023-04-25T07:27:18;9.63;;;1.77;;
19339;SDS011;9804;52.350;6.684;2023-04-25T07:29:43;6.97;;;1.15;;
19339;SDS011;9804;52.350;6.684;2023-04-25T07:32:09;9.47;;;1.40;;
19339;SDS011;9804;52.350;6.684;2023-04-25T07:34:37;11.35;;;2.00;;
19339;SDS011;9804;52.350;6.684;2023-04-25T07:37:03;7.47;;;1.50;;
19339;SDS011;9804;52.350;6.684;2023-04-25T07:39:29;9.40;;;1.40;;
19339;SDS011;9804;52.350;6.684;2023-04-25T07:41:54;8.20;;;1.40;;
19339;SDS011;9804;52.350;6.684;2023-04-25T07:44:20;8.18;;;1.45;;
19339;SDS011;9804;52.350;6.684;2023-04-25T07:46:45;7.53;;;1.10;;
19339;SDS011;9804;52.350;6.684;2023-04-25T07:49:10;9.02;;;1.10;;
19339;SDS011;9804;52.350;6.684;2023-04-25T07:51:36;8.02;;;1.10;;
19339;SDS011;9804;52.350;6.684;2023-04-25T07:54:01;6.05;;;0.80;;
19339;SDS011;9804;52.350;6.684;2023-04-25T07:56:27;8.27;;;1.27;;
19339;SDS011;9804;52.350;6.684;2023-04-25T07:58:52;10.65;;;1.42;;
19339;SDS011;9804;52.350;6.684;2023-04-25T08:01:17;9.40;;;1.20;;
19339;SDS011;9804;52.350;6.684;2023-04-25T08:03:43;7.75;;;1.95;;
19339;SDS011;9804;52.350;6.684;2023-04-25T08:06:09;5.60;;;1.10;;
19339;SDS011;9804;52.350;6.684;2023-04-25T08:08:34;7.57;;;1.10;;
19339;SDS011;9804;52.350;6.684;2023-04-25T08:11:00;11.77;;;2.72;;
19339;SDS011;9804;52.350;6.684;2023-04-25T08:13:25;9.65;;;1.73;;
19339;SDS011;9804;52.350;6.684;2023-04-25T08:15:50;9.10;;;1.58;;
19339;SDS011;9804;52.350;6.684;2023-04-25T08:18:16;7.80;;;1.35;;
19339;SDS011;9804;52.350;6.684;2023-04-25T08:20:41;9.30;;;1.90;;
19339;SDS011;9804;52.350;6.684;2023-04-25T08:23:06;12.35;;;1.42;;
19339;SDS011;9804;52.350;6.684;2023-04-25T08:25:32;12.25;;;2.05;;
19339;SDS011;9804;52.350;6.684;2023-04-25T08:27:58;11.05;;;2.17;;
19339;SDS011;9804;52.350;6.684;2023-04-25T08:30:24;6.05;;;1.30;;
19339;SDS011;9804;52.350;6.684;2023-04-25T08:32:50;8.98;;;1.30;;
19339;SDS011;9804;52.350;6.684;2023-04-25T08:35:15;10.98;;;1.80;;
19339;SDS011;9804;52.350;6.684;2023-04-25T08:37:42;8.52;;;1.38;;
19339;SDS011;9804;52.350;6.684;2023-04-25T08:40:07;8.13;;;1.60;;
19339;SDS011;9804;52.350;6.684;2023-04-25T08:42:39;10.18;;;1.77;;
19339;SDS011;9804;52.350;6.684;2023-04-25T08:45:07;10.80;;;1.95;;
19339;SDS011;9804;52.350;6.684;2023-04-25T08:47:33;13.10;;;2.17;;
19339;SDS011;9804;52.350;6.684;2023-04-25T08:49:59;9.07;;;1.52;;
19339;SDS011;9804;52.350;6.684;2023-04-25T08:52:27;6.68;;;1.15;;
19339;SDS011;9804;52.350;6.684;2023-04-25T08:54:57;8.40;;;1.20;;
19339;SDS011;9804;52.350;6.684;2023-04-25T08:57:24;10.50;;;2.10;;
19339;SDS011;9804;52.350;6.684;2023-04-25T08:59:51;11.88;;;1.40;;
19339;SDS011;9804;52.350;6.684;2023-04-25T09:02:17;5.65;;;1.20;;
19339;SDS011;9804;52.350;6.684;2023-04-25T09:04:45;7.13;;;1.25;;
19339;SDS011;9804;52.350;6.684;2023-04-25T09:07:11;13.02;;;1.35;;
19339;SDS011;9804;52.350;6.684;2023-04-25T09:09:36;7.88;;;1.45;;
19339;SDS011;9804;52.350;6.684;2023-04-25T09:12:02;7.28;;;1.30;;
19339;SDS011;9804;52.350;6.684;2023-04-25T09:14:28;6.07;;;1.40;;
19339;SDS011;9804;52.350;6.684;2023-04-25T09:19:31;6.25;;;1.45;;
19339;SDS011;9804;52.350;6.684;2023-04-25T09:21:59;10.88;;;1.40;;
19339;SDS011;9804;52.350;6.684;2023-04-25T09:26:58;7.57;;;1.58;;
19339;SDS011;9804;52.350;6.684;2023-04-25T09:29:28;6.28;;;0.90;;
19339;SDS011;9804;52.350;6.684;2023-04-25T09:32:11;3.35;;;0.75;;
19339;SDS011;9804;52.350;6.684;2023-04-25T09:34:44;12.77;;;1.42;;
19339;SDS011;9804;52.350;6.684;2023-04-25T09:37:13;7.45;;;1.30;;
19339;SDS011;9804;52.350;6.684;2023-04-25T09:39:55;4.60;;;1.30;;
19339;SDS011;9804;52.350;6.684;2023-04-25T09:42:27;7.05;;;1.48;;
19339;SDS011;9804;52.350;6.684;2023-04-25T09:44:56;5.17;;;1.17;;
19339;SDS011;9804;52.350;6.684;2023-04-25T09:47:23;7.15;;;1.20;;
19339;SDS011;9804;52.350;6.684;2023-04-25T09:49:50;7.43;;;1.47;;
19339;SDS011;9804;52.350;6.684;2023-04-25T09:52:17;5.13;;;1.80;;
19339;SDS011;9804;52.350;6.684;2023-04-25T09:54:44;12.40;;;1.73;;
19339;SDS011;9804;52.350;6.684;2023-04-25T09:57:11;7.35;;;1.30;;
19339;SDS011;9804;52.350;6.684;2023-04-25T09:59:45;8.25;;;1.38;;
19339;SDS011;9804;52.350;6.684;2023-04-25T10:02:12;8.93;;;1.35;;
19339;SDS011;9804;52.350;6.684;2023-04-25T10:04:47;7.07;;;1.42;;
19339;SDS011;9804;52.350;6.684;2023-04-25T10:07:14;10.32;;;1.48;;
19339;SDS011;9804;52.350;6.684;2023-04-25T10:09:40;7.15;;;1.50;;
19339;SDS011;9804;52.350;6.684;2023-04-25T10:12:07;7.63;;;1.30;;
19339;SDS011;9804;52.350;6.684;2023-04-25T10:14:33;8.95;;;1.20;;
19339;SDS011;9804;52.350;6.684;2023-04-25T10:16:59;3.78;;;0.68;;
19339;SDS011;9804;52.350;6.684;2023-04-25T10:19:26;5.03;;;1.02;;
19339;SDS011;9804;52.350;6.684;2023-04-25T10:21:54;5.18;;;1.10;;
19339;SDS011;9804;52.350;6.684;2023-04-25T10:24:27;5.63;;;1.02;;
19339;SDS011;9804;52.350;6.684;2023-04-25T10:26:53;6.55;;;1.10;;
19339;SDS011;9804;52.350;6.684;2023-04-25T10:29:25;4.05;;;0.90;;
19339;SDS011;9804;52.350;6.684;2023-04-25T10:31:51;4.85;;;0.80;;
19339;SDS011;9804;52.350;6.684;2023-04-25T10:34:17;5.38;;;1.20;;
19339;SDS011;9804;52.350;6.684;2023-04-25T10:36:42;3.00;;;0.90;;
19339;SDS011;9804;52.350;6.684;2023-04-25T10:39:21;6.30;;;0.90;;
19339;SDS011;9804;52.350;6.684;2023-04-25T10:41:51;3.60;;;1.20;;
19339;SDS011;9804;52.350;6.684;2023-04-25T10:44:18;6.10;;;1.20;;
19339;SDS011;9804;52.350;6.684;2023-04-25T10:46:44;5.78;;;1.08;;
19339;SDS011;9804;52.350;6.684;2023-04-25T10:49:10;7.88;;;1.05;;
19339;SDS011;9804;52.350;6.684;2023-04-25T10:52:10;8.57;;;1.25;;
19339;SDS011;9804;52.350;6.684;2023-04-25T10:54:55;6.88;;;1.23;;
19339;SDS011;9804;52.350;6.684;2023-04-25T10:57:32;6.72;;;1.10;;
19339;SDS011;9804;52.350;6.684;2023-04-25T11:00:06;9.55;;;1.35;;
19339;SDS011;9804;52.350;6.684;2023-04-25T11:05:09;7.22;;;1.02;;
19339;SDS011;9804;52.350;6.684;2023-04-25T11:07:54;5.95;;;1.02;;
19339;SDS011;9804;52.350;6.684;2023-04-25T11:10:26;4.22;;;0.88;;
19339;SDS011;9804;52.350;6.684;2023-04-25T11:12:52;4.63;;;0.80;;
19339;SDS011;9804;52.350;6.684;2023-04-25T11:15:18;4.30;;;1.08;;
19339;SDS011;9804;52.350;6.684;2023-04-25T11:17:43;5.63;;;1.02;;
19339;SDS011;9804;52.350;6.684;2023-04-25T11:20:11;3.35;;;1.10;;
19339;SDS011;9804;52.350;6.684;2023-04-25T11:22:39;9.80;;;1.17;;
19339;SDS011;9804;52.350;6.684;2023-04-25T11:25:06;2.40;;;1.02;;
19339;SDS011;9804;52.350;6.684;2023-04-25T11:27:32;8.07;;;0.98;;
19339;SDS011;9804;52.350;6.684;2023-04-25T11:29:58;3.47;;;0.85;;
19339;SDS011;9804;52.350;6.684;2023-04-25T11:32:23;6.13;;;1.00;;
19339;SDS011;9804;52.350;6.684;2023-04-25T11:34:49;7.38;;;0.88;;
19339;SDS011;9804;52.350;6.684;2023-04-25T11:37:14;14.25;;;1.20;;
19339;SDS011;9804;52.350;6.684;2023-04-25T11:39:44;6.18;;;1.20;;
19339;SDS011;9804;52.350;6.684;2023-04-25T11:42:11;7.40;;;1.45;;
19339;SDS011;9804;52.350;6.684;2023-04-25T11:44:37;5.43;;;1.42;;
19339;SDS011;9804;52.350;6.684;2023-04-25T11:47:04;8.25;;;1.75;;
19339;SDS011;9804;52.350;6.684;2023-04-25T11:49:30;3.67;;;1.00;;
19339;SDS011;9804;52.350;6.684;2023-04-25T11:51:56;5.18;;;1.17;;
19339;SDS011;9804;52.350;6.684;2023-04-25T11:54:22;4.75;;;1.23;;
19339;SDS011;9804;52.350;6.684;2023-04-25T11:56:47;4.22;;;1.10;;
19339;SDS011;9804;52.350;6.684;2023-04-25T11:59:13;6.18;;;1.38;;
19339;SDS011;9804;52.350;6.684;2023-04-25T12:01:39;5.47;;;1.30;;
19339;SDS011;9804;52.350;6.684;2023-04-25T12:04:10;7.55;;;1.27;;
19339;SDS011;9804;52.350;6.684;2023-04-25T12:06:40;4.88;;;1.20;;
19339;SDS011;9804;52.350;6.684;2023-04-25T12:09:08;3.58;;;0.70;;
19339;SDS011;9804;52.350;6.684;2023-04-25T12:11:45;5.72;;;0.68;;
19339;SDS011;9804;52.350;6.684;2023-04-25T12:14:12;5.93;;;0.90;;
19339;SDS011;9804;52.350;6.684;2023-04-25T12:16:45;5.68;;;0.90;;
19339;SDS011;9804;52.350;6.684;2023-04-25T12:19:14;7.20;;;1.10;;
19339;SDS011;9804;52.350;6.684;2023-04-25T12:21:41;4.07;;;0.95;;
19339;SDS011;9804;52.350;6.684;2023-04-25T12:24:25;8.57;;;1.10;;
19339;SDS011;9804;52.350;6.684;2023-04-25T12:26:53;6.75;;;1.10;;
19339;SDS011;9804;52.350;6.684;2023-04-25T12:29:24;3.55;;;1.00;;
19339;SDS011;9804;52.350;6.684;2023-04-25T12:31:51;4.03;;;1.10;;
19339;SDS011;9804;52.350;6.684;2023-04-25T12:34:18;7.68;;;1.10;;
19339;SDS011;9804;52.350;6.684;2023-04-25T12:36:46;5.85;;;1.23;;
19339;SDS011;9804;52.350;6.684;2023-04-25T12:39:16;5.75;;;1.27;;
19339;SDS011;9804;52.350;6.684;2023-04-25T12:41:47;6.35;;;1.10;;
19339;SDS011;9804;52.350;6.684;2023-04-25T12:44:13;7.82;;;1.25;;
19339;SDS011;9804;52.350;6.684;2023-04-25T12:46:39;3.40;;;1.38;;
19339;SDS011;9804;52.350;6.684;2023-04-25T12:49:05;8.18;;;1.25;;
19339;SDS011;9804;52.350;6.684;2023-04-25T12:51:32;8.10;;;1.13;;
19339;SDS011;9804;52.350;6.684;2023-04-25T12:53:58;8.43;;;1.10;;
19339;SDS011;9804;52.350;6.684;2023-04-25T12:56:25;3.10;;;0.93;;
19339;SDS011;9804;52.350;6.684;2023-04-25T12:58:51;6.25;;;0.60;;
19339;SDS011;9804;52.350;6.684;2023-04-25T13:01:17;7.25;;;0.93;;
19339;SDS011;9804;52.350;6.684;2023-04-25T13:03:42;3.53;;;0.70;;
19339;SDS011;9804;52.350;6.684;2023-04-25T13:06:08;3.72;;;0.70;;
19339;SDS011;9804;52.350;6.684;2023-04-25T13:08:33;5.45;;;0.70;;
19339;SDS011;9804;52.350;6.684;2023-04-25T13:10:59;1.90;;;0.50;;
19339;SDS011;9804;52.350;6.684;2023-04-25T13:13:25;4.15;;;0.90;;
19339;SDS011;9804;52.350;6.684;2023-04-25T13:15:52;5.50;;;0.77;;
19339;SDS011;9804;52.350;6.684;2023-04-25T13:18:18;5.10;;;1.00;;
19339;SDS011;9804;52.350;6.684;2023-04-25T13:20:44;5.07;;;0.95;;
19339;SDS011;9804;52.350;6.684;2023-04-25T13:23:09;6.65;;;1.45;;
19339;SDS011;9804;52.350;6.684;2023-04-25T13:25:35;2.85;;;1.20;;
19339;SDS011;9804;52.350;6.684;2023-04-25T13:28:01;5.63;;;0.82;;
19339;SDS011;9804;52.350;6.684;2023-04-25T13:30:26;6.45;;;1.10;;
19339;SDS011;9804;52.350;6.684;2023-04-25T13:32:52;7.35;;;0.90;;
19339;SDS011;9804;52.350;6.684;2023-04-25T13:35:17;5.10;;;1.00;;
19339;SDS011;9804;52.350;6.684;2023-04-25T13:37:43;3.35;;;0.73;;
19339;SDS011;9804;52.350;6.684;2023-04-25T13:40:09;2.70;;;0.70;;
19339;SDS011;9804;52.350;6.684;2023-04-25T13:42:36;4.00;;;0.93;;
19339;SDS011;9804;52.350;6.684;2023-04-25T13:45:02;4.90;;;1.15;;
19339;SDS011;9804;52.350;6.684;2023-04-25T13:47:28;4.78;;;0.80;;
19339;SDS011;9804;52.350;6.684;2023-04-25T13:49:54;3.22;;;0.85;;
19339;SDS011;9804;52.350;6.684;2023-04-25T13:52:19;8.07;;;1.30;;
19339;SDS011;9804;52.350;6.684;2023-04-25T13:54:45;5.10;;;0.80;;
19339;SDS011;9804;52.350;6.684;2023-04-25T13:57:10;2.03;;;0.85;;
19339;SDS011;9804;52.350;6.684;2023-04-25T13:59:36;8.48;;;1.20;;
19339;SDS011;9804;52.350;6.684;2023-04-25T14:02:02;3.13;;;0.80;;
19339;SDS011;9804;52.350;6.684;2023-04-25T14:04:27;4.05;;;0.70;;
19339;SDS011;9804;52.350;6.684;2023-04-25T14:06:53;4.97;;;0.60;;
19339;SDS011;9804;52.350;6.684;2023-04-25T14:09:18;10.10;;;0.88;;
19339;SDS011;9804;52.350;6.684;2023-04-25T14:11:45;3.03;;;0.93;;
19339;SDS011;9804;52.350;6.684;2023-04-25T14:14:11;5.32;;;1.05;;
19339;SDS011;9804;52.350;6.684;2023-04-25T14:16:37;5.18;;;1.15;;
19339;SDS011;9804;52.350;6.684;2023-04-25T14:19:02;4.03;;;0.90;;
19339;SDS011;9804;52.350;6.684;2023-04-25T14:21:28;6.93;;;0.95;;
19339;SDS011;9804;52.350;6.684;2023-04-25T14:23:54;5.28;;;1.13;;
19339;SDS011;9804;52.350;6.684;2023-04-25T14:26:19;4.35;;;0.68;;
19339;SDS011;9804;52.350;6.684;2023-04-25T14:28:45;5.30;;;0.90;;
19339;SDS011;9804;52.350;6.684;2023-04-25T14:31:10;3.22;;;0.80;;
19339;SDS011;9804;52.350;6.684;2023-04-25T14:33:36;4.55;;;0.70;;
19339;SDS011;9804;52.350;6.684;2023-04-25T14:36:04;5.65;;;1.00;;
19339;SDS011;9804;52.350;6.684;2023-04-25T14:38:30;3.63;;;1.08;;
19339;SDS011;9804;52.350;6.684;2023-04-25T14:40:55;5.45;;;0.95;;
19339;SDS011;9804;52.350;6.684;2023-04-25T14:43:21;6.05;;;1.17;;
19339;SDS011;9804;52.350;6.684;2023-04-25T14:45:46;5.57;;;1.25;;
19339;SDS011;9804;52.350;6.684;2023-04-25T14:48:11;6.65;;;2.35;;
19339;SDS011;9804;52.350;6.684;2023-04-25T14:50:37;8.05;;;1.75;;
19339;SDS011;9804;52.350;6.684;2023-04-25T14:53:02;7.53;;;1.48;;
19339;SDS011;9804;52.350;6.684;2023-04-25T14:55:28;5.47;;;1.23;;
19339;SDS011;9804;52.350;6.684;2023-04-25T14:57:53;11.23;;;1.67;;